sensor_id;sensor_type;location;lat;lon;timestamp;P1;durP1;ratioP1;P2;durP2;ratioP2
55316;SDS011;41178;48.956;8.130;2023-04-16T00:04:51;11.97;;;10.73;;
55316;SDS011;41178;48.956;8.130;2023-04-16T00:09:53;12.57;;;11.33;;
55316;SDS011;41178;48.956;8.130;2023-04-16T00:14:54;13.10;;;10.53;;
55316;SDS011;41178;48.956;8.130;2023-04-16T00:19:56;11.83;;;10.50;;
55316;SDS011;41178;48.956;8.130;2023-04-16T00:24:57;11.37;;;10.17;;
55316;SDS011;41178;48.956;8.130;2023-04-16T00:29:59;12.40;;;11.07;;
55316;SDS011;41178;48.956;8.130;2023-04-16T00:35:01;12.13;;;10.93;;
55316;SDS011;41178;48.956;8.130;2023-04-16T00:40:02;11.40;;;10.20;;
55316;SDS011;41178;48.956;8.130;2023-04-16T00:45:05;11.83;;;10.63;;
55316;SDS011;41178;48.956;8.130;2023-04-16T00:50:08;12.37;;;10.90;;
55316;SDS011;41178;48.956;8.130;2023-04-16T00:55:10;11.50;;;10.30;;
55316;SDS011;41178;48.956;8.130;2023-04-16T01:00:13;11.57;;;10.37;;
55316;SDS011;41178;48.956;8.130;2023-04-16T01:05:15;12.37;;;11.07;;
55316;SDS011;41178;48.956;8.130;2023-04-16T01:10:17;12.10;;;10.27;;
55316;SDS011;41178;48.956;8.130;2023-04-16T01:15:18;11.30;;;10.20;;
55316;SDS011;41178;48.956;8.130;2023-04-16T01:20:20;11.57;;;10.40;;
55316;SDS011;41178;48.956;8.130;2023-04-16T01:25:22;11.73;;;10.37;;
55316;SDS011;41178;48.956;8.130;2023-04-16T01:30:24;10.83;;;9.73;;
55316;SDS011;41178;48.956;8.130;2023-04-16T01:35:25;9.93;;;8.93;;
55316;SDS011;41178;48.956;8.130;2023-04-16T01:40:27;10.87;;;9.77;;
55316;SDS011;41178;48.956;8.130;2023-04-16T01:45:32;10.20;;;9.13;;
55316;SDS011;41178;48.956;8.130;2023-04-16T01:50:34;10.00;;;9.00;;
55316;SDS011;41178;48.956;8.130;2023-04-16T01:55:36;9.60;;;8.60;;
55316;SDS011;41178;48.956;8.130;2023-04-16T02:00:38;9.83;;;8.63;;
55316;SDS011;41178;48.956;8.130;2023-04-16T02:05:39;10.30;;;8.93;;
55316;SDS011;41178;48.956;8.130;2023-04-16T02:10:44;9.83;;;8.83;;
55316;SDS011;41178;48.956;8.130;2023-04-16T02:15:47;10.23;;;8.77;;
55316;SDS011;41178;48.956;8.130;2023-04-16T02:20:49;9.43;;;8.23;;
55316;SDS011;41178;48.956;8.130;2023-04-16T02:25:51;10.50;;;8.57;;
55316;SDS011;41178;48.956;8.130;2023-04-16T02:30:53;9.03;;;8.00;;
55316;SDS011;41178;48.956;8.130;2023-04-16T02:35:54;9.00;;;8.10;;
55316;SDS011;41178;48.956;8.130;2023-04-16T02:40:56;8.67;;;7.77;;
55316;SDS011;41178;48.956;8.130;2023-04-16T02:45:58;10.20;;;8.00;;
55316;SDS011;41178;48.956;8.130;2023-04-16T02:51:01;8.77;;;7.63;;
55316;SDS011;41178;48.956;8.130;2023-04-16T02:56:02;10.00;;;8.43;;
55316;SDS011;41178;48.956;8.130;2023-04-16T03:01:04;9.97;;;8.57;;
55316;SDS011;41178;48.956;8.130;2023-04-16T03:06:06;9.07;;;8.03;;
55316;SDS011;41178;48.956;8.130;2023-04-16T03:11:07;11.13;;;7.37;;
55316;SDS011;41178;48.956;8.130;2023-04-16T03:16:09;9.00;;;7.20;;
55316;SDS011;41178;48.956;8.130;2023-04-16T03:21:11;10.10;;;7.90;;
55316;SDS011;41178;48.956;8.130;2023-04-16T03:26:12;8.77;;;7.47;;
55316;SDS011;41178;48.956;8.130;2023-04-16T03:31:14;8.40;;;7.37;;
55316;SDS011;41178;48.956;8.130;2023-04-16T03:36:16;9.37;;;7.60;;
55316;SDS011;41178;48.956;8.130;2023-04-16T03:41:18;9.73;;;7.90;;
55316;SDS011;41178;48.956;8.130;2023-04-16T03:46:20;10.03;;;7.93;;
55316;SDS011;41178;48.956;8.130;2023-04-16T03:51:21;10.10;;;7.80;;
55316;SDS011;41178;48.956;8.130;2023-04-16T03:56:23;8.23;;;7.33;;
55316;SDS011;41178;48.956;8.130;2023-04-16T04:01:25;9.03;;;7.50;;
55316;SDS011;41178;48.956;8.130;2023-04-16T04:06:27;9.13;;;7.83;;
55316;SDS011;41178;48.956;8.130;2023-04-16T04:11:28;9.43;;;7.90;;
55316;SDS011;41178;48.956;8.130;2023-04-16T04:16:30;9.17;;;7.37;;
55316;SDS011;41178;48.956;8.130;2023-04-16T04:21:32;7.93;;;6.73;;
55316;SDS011;41178;48.956;8.130;2023-04-16T04:26:34;9.73;;;7.60;;
55316;SDS011;41178;48.956;8.130;2023-04-16T04:31:36;8.60;;;7.43;;
55316;SDS011;41178;48.956;8.130;2023-04-16T04:36:38;8.63;;;7.27;;
55316;SDS011;41178;48.956;8.130;2023-04-16T04:41:39;9.33;;;8.27;;
55316;SDS011;41178;48.956;8.130;2023-04-16T04:46:41;10.33;;;8.53;;
55316;SDS011;41178;48.956;8.130;2023-04-16T04:51:42;10.93;;;8.67;;
55316;SDS011;41178;48.956;8.130;2023-04-16T04:56:44;10.53;;;9.30;;
55316;SDS011;41178;48.956;8.130;2023-04-16T05:01:46;10.17;;;8.57;;
55316;SDS011;41178;48.956;8.130;2023-04-16T05:06:48;11.43;;;9.10;;
55316;SDS011;41178;48.956;8.130;2023-04-16T05:11:50;10.67;;;9.10;;
55316;SDS011;41178;48.956;8.130;2023-04-16T05:16:52;11.97;;;9.53;;
55316;SDS011;41178;48.956;8.130;2023-04-16T05:21:54;12.40;;;8.93;;
55316;SDS011;41178;48.956;8.130;2023-04-16T05:26:56;10.57;;;9.13;;
55316;SDS011;41178;48.956;8.130;2023-04-16T05:31:58;10.37;;;8.73;;
55316;SDS011;41178;48.956;8.130;2023-04-16T05:36:59;11.17;;;8.87;;
55316;SDS011;41178;48.956;8.130;2023-04-16T05:42:01;10.90;;;8.80;;
55316;SDS011;41178;48.956;8.130;2023-04-16T05:47:03;11.17;;;9.30;;
55316;SDS011;41178;48.956;8.130;2023-04-16T05:52:05;10.63;;;8.57;;
55316;SDS011;41178;48.956;8.130;2023-04-16T05:57:07;10.57;;;8.63;;
55316;SDS011;41178;48.956;8.130;2023-04-16T06:02:09;12.50;;;8.70;;
55316;SDS011;41178;48.956;8.130;2023-04-16T06:07:11;11.43;;;8.57;;
55316;SDS011;41178;48.956;8.130;2023-04-16T06:12:12;12.03;;;9.13;;
55316;SDS011;41178;48.956;8.130;2023-04-16T06:17:14;11.80;;;10.00;;
55316;SDS011;41178;48.956;8.130;2023-04-16T06:22:16;11.80;;;9.87;;
55316;SDS011;41178;48.956;8.130;2023-04-16T06:27:18;12.43;;;9.50;;
55316;SDS011;41178;48.956;8.130;2023-04-16T06:32:20;13.33;;;10.67;;
55316;SDS011;41178;48.956;8.130;2023-04-16T06:37:22;11.63;;;9.23;;
55316;SDS011;41178;48.956;8.130;2023-04-16T06:42:23;10.70;;;8.83;;
55316;SDS011;41178;48.956;8.130;2023-04-16T06:47:25;11.90;;;9.30;;
55316;SDS011;41178;48.956;8.130;2023-04-16T06:52:27;9.90;;;8.40;;
55316;SDS011;41178;48.956;8.130;2023-04-16T06:57:29;12.27;;;9.00;;
55316;SDS011;41178;48.956;8.130;2023-04-16T07:02:31;12.70;;;9.17;;
55316;SDS011;41178;48.956;8.130;2023-04-16T07:07:33;10.57;;;8.73;;
55316;SDS011;41178;48.956;8.130;2023-04-16T07:12:34;9.73;;;8.13;;
55316;SDS011;41178;48.956;8.130;2023-04-16T07:17:36;9.97;;;7.93;;
55316;SDS011;41178;48.956;8.130;2023-04-16T07:22:38;9.83;;;8.13;;
55316;SDS011;41178;48.956;8.130;2023-04-16T07:27:40;9.50;;;8.10;;
55316;SDS011;41178;48.956;8.130;2023-04-16T07:32:41;8.97;;;7.60;;
55316;SDS011;41178;48.956;8.130;2023-04-16T07:37:43;9.40;;;7.60;;
55316;SDS011;41178;48.956;8.130;2023-04-16T07:42:45;8.93;;;6.67;;
55316;SDS011;41178;48.956;8.130;2023-04-16T07:47:46;9.33;;;7.20;;
55316;SDS011;41178;48.956;8.130;2023-04-16T07:52:48;9.17;;;7.00;;
55316;SDS011;41178;48.956;8.130;2023-04-16T07:57:50;8.90;;;7.33;;
55316;SDS011;41178;48.956;8.130;2023-04-16T08:02:52;11.50;;;7.30;;
55316;SDS011;41178;48.956;8.130;2023-04-16T08:07:54;8.07;;;6.40;;
55316;SDS011;41178;48.956;8.130;2023-04-16T08:12:56;8.80;;;7.20;;
55316;SDS011;41178;48.956;8.130;2023-04-16T08:17:57;8.67;;;6.87;;
55316;SDS011;41178;48.956;8.130;2023-04-16T08:23:00;8.73;;;6.83;;
55316;SDS011;41178;48.956;8.130;2023-04-16T08:28:01;9.03;;;6.37;;
55316;SDS011;41178;48.956;8.130;2023-04-16T08:33:03;8.77;;;6.30;;
55316;SDS011;41178;48.956;8.130;2023-04-16T08:38:05;9.47;;;6.17;;
55316;SDS011;41178;48.956;8.130;2023-04-16T08:43:10;8.50;;;6.90;;
55316;SDS011;41178;48.956;8.130;2023-04-16T08:48:14;8.67;;;6.87;;
55316;SDS011;41178;48.956;8.130;2023-04-16T08:53:17;9.47;;;7.80;;
55316;SDS011;41178;48.956;8.130;2023-04-16T08:58:20;9.53;;;7.43;;
55316;SDS011;41178;48.956;8.130;2023-04-16T09:03:22;16.57;;;8.27;;
55316;SDS011;41178;48.956;8.130;2023-04-16T09:08:24;8.80;;;7.30;;
55316;SDS011;41178;48.956;8.130;2023-04-16T09:13:26;10.43;;;8.07;;
55316;SDS011;41178;48.956;8.130;2023-04-16T09:18:29;11.67;;;7.47;;
55316;SDS011;41178;48.956;8.130;2023-04-16T09:23:31;11.03;;;7.50;;
55316;SDS011;41178;48.956;8.130;2023-04-16T09:28:39;10.10;;;8.20;;
55316;SDS011;41178;48.956;8.130;2023-04-16T09:39:06;9.33;;;6.73;;
55316;SDS011;41178;48.956;8.130;2023-04-16T09:44:20;10.57;;;7.63;;
55316;SDS011;41178;48.956;8.130;2023-04-16T09:49:42;9.00;;;6.83;;
55316;SDS011;41178;48.956;8.130;2023-04-16T09:54:51;9.90;;;7.87;;
55316;SDS011;41178;48.956;8.130;2023-04-16T09:59:54;9.37;;;7.30;;
55316;SDS011;41178;48.956;8.130;2023-04-16T10:05:02;9.73;;;7.37;;
55316;SDS011;41178;48.956;8.130;2023-04-16T10:10:04;9.60;;;7.00;;
55316;SDS011;41178;48.956;8.130;2023-04-16T10:15:06;8.40;;;6.50;;
55316;SDS011;41178;48.956;8.130;2023-04-16T10:20:08;9.53;;;6.57;;
55316;SDS011;41178;48.956;8.130;2023-04-16T10:25:10;8.40;;;6.80;;
55316;SDS011;41178;48.956;8.130;2023-04-16T10:30:12;10.60;;;7.33;;
55316;SDS011;41178;48.956;8.130;2023-04-16T10:35:18;8.93;;;7.10;;
55316;SDS011;41178;48.956;8.130;2023-04-16T10:40:22;9.03;;;6.87;;
55316;SDS011;41178;48.956;8.130;2023-04-16T10:45:25;7.27;;;6.17;;
55316;SDS011;41178;48.956;8.130;2023-04-16T10:50:33;7.77;;;6.50;;
55316;SDS011;41178;48.956;8.130;2023-04-16T10:55:37;8.30;;;6.70;;
55316;SDS011;41178;48.956;8.130;2023-04-16T11:06:32;9.23;;;7.20;;
55316;SDS011;41178;48.956;8.130;2023-04-16T11:11:37;9.10;;;6.70;;
55316;SDS011;41178;48.956;8.130;2023-04-16T11:16:39;9.87;;;6.60;;
55316;SDS011;41178;48.956;8.130;2023-04-16T11:21:43;8.60;;;6.83;;
55316;SDS011;41178;48.956;8.130;2023-04-16T11:26:45;8.13;;;6.67;;
55316;SDS011;41178;48.956;8.130;2023-04-16T11:31:51;8.57;;;6.83;;
55316;SDS011;41178;48.956;8.130;2023-04-16T11:36:54;8.83;;;7.07;;
55316;SDS011;41178;48.956;8.130;2023-04-16T11:41:56;9.07;;;6.77;;
55316;SDS011;41178;48.956;8.130;2023-04-16T11:46:58;9.53;;;7.27;;
55316;SDS011;41178;48.956;8.130;2023-04-16T11:52:06;10.60;;;7.43;;
55316;SDS011;41178;48.956;8.130;2023-04-16T11:57:08;8.57;;;7.13;;
55316;SDS011;41178;48.956;8.130;2023-04-16T12:02:09;7.87;;;6.43;;
55316;SDS011;41178;48.956;8.130;2023-04-16T12:07:12;8.67;;;6.90;;
55316;SDS011;41178;48.956;8.130;2023-04-16T12:12:23;8.80;;;7.40;;
55316;SDS011;41178;48.956;8.130;2023-04-16T12:17:32;7.37;;;6.57;;
55316;SDS011;41178;48.956;8.130;2023-04-16T12:22:35;7.87;;;5.90;;
55316;SDS011;41178;48.956;8.130;2023-04-16T12:27:46;7.23;;;6.03;;
55316;SDS011;41178;48.956;8.130;2023-04-16T12:38:16;8.27;;;5.97;;
55316;SDS011;41178;48.956;8.130;2023-04-16T12:43:17;7.63;;;6.17;;
55316;SDS011;41178;48.956;8.130;2023-04-16T12:48:21;7.87;;;7.07;;
55316;SDS011;41178;48.956;8.130;2023-04-16T12:53:22;8.53;;;6.27;;
55316;SDS011;41178;48.956;8.130;2023-04-16T12:58:24;7.03;;;6.33;;
55316;SDS011;41178;48.956;8.130;2023-04-16T13:03:26;8.03;;;6.30;;
55316;SDS011;41178;48.956;8.130;2023-04-16T13:08:28;7.80;;;5.83;;
55316;SDS011;41178;48.956;8.130;2023-04-16T13:13:31;9.10;;;6.87;;
55316;SDS011;41178;48.956;8.130;2023-04-16T13:18:34;8.37;;;6.07;;
55316;SDS011;41178;48.956;8.130;2023-04-16T13:23:39;6.97;;;5.60;;
55316;SDS011;41178;48.956;8.130;2023-04-16T13:28:41;6.60;;;5.77;;
55316;SDS011;41178;48.956;8.130;2023-04-16T13:33:43;7.30;;;5.27;;
55316;SDS011;41178;48.956;8.130;2023-04-16T13:38:44;6.63;;;5.93;;
55316;SDS011;41178;48.956;8.130;2023-04-16T13:43:46;6.23;;;5.23;;
55316;SDS011;41178;48.956;8.130;2023-04-16T13:48:48;6.43;;;5.17;;
55316;SDS011;41178;48.956;8.130;2023-04-16T13:53:49;6.83;;;5.40;;
55316;SDS011;41178;48.956;8.130;2023-04-16T13:58:51;5.83;;;5.00;;
55316;SDS011;41178;48.956;8.130;2023-04-16T14:03:53;7.23;;;5.63;;
55316;SDS011;41178;48.956;8.130;2023-04-16T14:08:56;7.27;;;6.10;;
55316;SDS011;41178;48.956;8.130;2023-04-16T14:13:57;13.43;;;5.87;;
55316;SDS011;41178;48.956;8.130;2023-04-16T14:18:59;7.00;;;6.30;;
55316;SDS011;41178;48.956;8.130;2023-04-16T14:24:01;9.60;;;7.03;;
55316;SDS011;41178;48.956;8.130;2023-04-16T14:29:03;8.43;;;7.00;;
55316;SDS011;41178;48.956;8.130;2023-04-16T14:34:05;8.93;;;6.53;;
55316;SDS011;41178;48.956;8.130;2023-04-16T14:39:07;8.20;;;6.60;;
55316;SDS011;41178;48.956;8.130;2023-04-16T14:44:09;10.57;;;7.80;;
55316;SDS011;41178;48.956;8.130;2023-04-16T14:49:11;9.07;;;7.17;;
55316;SDS011;41178;48.956;8.130;2023-04-16T14:54:14;10.03;;;8.50;;
55316;SDS011;41178;48.956;8.130;2023-04-16T14:59:16;9.43;;;7.07;;
55316;SDS011;41178;48.956;8.130;2023-04-16T15:04:17;11.20;;;8.30;;
55316;SDS011;41178;48.956;8.130;2023-04-16T15:09:20;8.83;;;7.47;;
55316;SDS011;41178;48.956;8.130;2023-04-16T15:14:21;9.97;;;8.50;;
55316;SDS011;41178;48.956;8.130;2023-04-16T15:19:24;10.27;;;8.77;;
55316;SDS011;41178;48.956;8.130;2023-04-16T15:24:28;11.53;;;8.97;;
55316;SDS011;41178;48.956;8.130;2023-04-16T15:29:30;12.50;;;9.77;;
55316;SDS011;41178;48.956;8.130;2023-04-16T15:34:31;11.57;;;8.97;;
55316;SDS011;41178;48.956;8.130;2023-04-16T15:39:33;10.97;;;8.90;;
55316;SDS011;41178;48.956;8.130;2023-04-16T15:44:35;12.00;;;9.40;;
55316;SDS011;41178;48.956;8.130;2023-04-16T15:49:37;11.30;;;8.83;;
55316;SDS011;41178;48.956;8.130;2023-04-16T15:54:38;11.87;;;9.23;;
55316;SDS011;41178;48.956;8.130;2023-04-16T15:59:41;11.63;;;9.90;;
55316;SDS011;41178;48.956;8.130;2023-04-16T16:04:48;10.97;;;9.13;;
55316;SDS011;41178;48.956;8.130;2023-04-16T16:09:49;11.00;;;9.10;;
55316;SDS011;41178;48.956;8.130;2023-04-16T16:14:53;11.97;;;9.43;;
55316;SDS011;41178;48.956;8.130;2023-04-16T16:19:57;12.90;;;9.57;;
55316;SDS011;41178;48.956;8.130;2023-04-16T16:24:59;11.97;;;9.40;;
55316;SDS011;41178;48.956;8.130;2023-04-16T16:30:00;11.73;;;9.40;;
55316;SDS011;41178;48.956;8.130;2023-04-16T16:35:05;12.50;;;10.17;;
55316;SDS011;41178;48.956;8.130;2023-04-16T16:40:09;12.93;;;10.43;;
55316;SDS011;41178;48.956;8.130;2023-04-16T16:45:12;12.47;;;9.83;;
55316;SDS011;41178;48.956;8.130;2023-04-16T16:50:14;11.80;;;9.83;;
55316;SDS011;41178;48.956;8.130;2023-04-16T16:55:16;10.77;;;9.33;;
55316;SDS011;41178;48.956;8.130;2023-04-16T17:00:19;13.57;;;9.63;;
55316;SDS011;41178;48.956;8.130;2023-04-16T17:05:22;12.70;;;9.80;;
55316;SDS011;41178;48.956;8.130;2023-04-16T17:10:23;13.00;;;9.67;;
55316;SDS011;41178;48.956;8.130;2023-04-16T17:15:25;13.37;;;10.67;;
55316;SDS011;41178;48.956;8.130;2023-04-16T17:20:27;17.33;;;14.10;;
55316;SDS011;41178;48.956;8.130;2023-04-16T17:25:29;13.87;;;9.83;;
55316;SDS011;41178;48.956;8.130;2023-04-16T17:30:31;12.37;;;10.77;;
55316;SDS011;41178;48.956;8.130;2023-04-16T17:35:32;13.50;;;10.63;;
55316;SDS011;41178;48.956;8.130;2023-04-16T17:40:34;12.80;;;10.10;;
55316;SDS011;41178;48.956;8.130;2023-04-16T17:45:36;12.83;;;10.40;;
55316;SDS011;41178;48.956;8.130;2023-04-16T17:50:37;12.03;;;9.20;;
55316;SDS011;41178;48.956;8.130;2023-04-16T17:55:48;12.83;;;9.97;;
55316;SDS011;41178;48.956;8.130;2023-04-16T18:00:51;13.87;;;11.17;;
55316;SDS011;41178;48.956;8.130;2023-04-16T18:05:52;12.27;;;10.27;;
55316;SDS011;41178;48.956;8.130;2023-04-16T18:10:55;11.77;;;9.63;;
55316;SDS011;41178;48.956;8.130;2023-04-16T18:15:57;12.63;;;10.90;;
55316;SDS011;41178;48.956;8.130;2023-04-16T18:20:58;12.53;;;10.03;;
55316;SDS011;41178;48.956;8.130;2023-04-16T18:26:00;14.30;;;11.57;;
55316;SDS011;41178;48.956;8.130;2023-04-16T18:31:02;16.70;;;13.00;;
55316;SDS011;41178;48.956;8.130;2023-04-16T18:36:07;19.30;;;12.50;;
55316;SDS011;41178;48.956;8.130;2023-04-16T18:41:17;17.80;;;12.33;;
55316;SDS011;41178;48.956;8.130;2023-04-16T18:46:20;18.17;;;13.00;;
55316;SDS011;41178;48.956;8.130;2023-04-16T18:51:21;13.50;;;10.80;;
55316;SDS011;41178;48.956;8.130;2023-04-16T18:56:23;17.73;;;12.47;;
55316;SDS011;41178;48.956;8.130;2023-04-16T19:01:25;18.77;;;13.40;;
55316;SDS011;41178;48.956;8.130;2023-04-16T19:06:27;15.77;;;12.13;;
55316;SDS011;41178;48.956;8.130;2023-04-16T19:11:29;15.00;;;11.80;;
55316;SDS011;41178;48.956;8.130;2023-04-16T19:16:31;14.83;;;12.20;;
55316;SDS011;41178;48.956;8.130;2023-04-16T19:21:33;14.40;;;11.87;;
55316;SDS011;41178;48.956;8.130;2023-04-16T19:26:35;18.63;;;15.47;;
55316;SDS011;41178;48.956;8.130;2023-04-16T19:31:37;16.77;;;14.27;;
55316;SDS011;41178;48.956;8.130;2023-04-16T19:36:39;18.33;;;14.47;;
55316;SDS011;41178;48.956;8.130;2023-04-16T19:41:41;19.40;;;14.90;;
55316;SDS011;41178;48.956;8.130;2023-04-16T19:46:43;16.03;;;12.83;;
55316;SDS011;41178;48.956;8.130;2023-04-16T19:51:44;15.63;;;12.30;;
55316;SDS011;41178;48.956;8.130;2023-04-16T19:56:47;17.37;;;13.83;;
55316;SDS011;41178;48.956;8.130;2023-04-16T20:01:51;17.03;;;13.13;;
55316;SDS011;41178;48.956;8.130;2023-04-16T20:06:53;16.97;;;12.33;;
55316;SDS011;41178;48.956;8.130;2023-04-16T20:11:55;18.17;;;12.40;;
55316;SDS011;41178;48.956;8.130;2023-04-16T20:16:58;15.43;;;11.80;;
55316;SDS011;41178;48.956;8.130;2023-04-16T20:22:00;16.90;;;13.40;;
55316;SDS011;41178;48.956;8.130;2023-04-16T20:27:01;17.93;;;12.83;;
55316;SDS011;41178;48.956;8.130;2023-04-16T20:32:04;17.40;;;13.53;;
55316;SDS011;41178;48.956;8.130;2023-04-16T20:37:06;20.20;;;14.87;;
55316;SDS011;41178;48.956;8.130;2023-04-16T20:42:08;18.90;;;13.77;;
55316;SDS011;41178;48.956;8.130;2023-04-16T20:47:13;16.23;;;13.13;;
55316;SDS011;41178;48.956;8.130;2023-04-16T20:52:15;15.20;;;12.30;;
55316;SDS011;41178;48.956;8.130;2023-04-16T20:57:17;17.50;;;13.20;;
55316;SDS011;41178;48.956;8.130;2023-04-16T21:02:19;17.90;;;13.40;;
55316;SDS011;41178;48.956;8.130;2023-04-16T21:07:21;17.10;;;14.00;;
55316;SDS011;41178;48.956;8.130;2023-04-16T21:12:23;21.50;;;15.80;;
55316;SDS011;41178;48.956;8.130;2023-04-16T21:17:24;19.03;;;14.97;;
55316;SDS011;41178;48.956;8.130;2023-04-16T21:22:26;21.27;;;15.63;;
55316;SDS011;41178;48.956;8.130;2023-04-16T21:27:28;19.87;;;14.87;;
55316;SDS011;41178;48.956;8.130;2023-04-16T21:32:29;19.30;;;14.27;;
55316;SDS011;41178;48.956;8.130;2023-04-16T21:37:31;20.80;;;15.27;;
55316;SDS011;41178;48.956;8.130;2023-04-16T21:42:33;19.10;;;15.10;;
55316;SDS011;41178;48.956;8.130;2023-04-16T21:47:44;21.20;;;16.23;;
55316;SDS011;41178;48.956;8.130;2023-04-16T21:52:45;18.47;;;14.57;;
55316;SDS011;41178;48.956;8.130;2023-04-16T21:57:47;20.30;;;15.70;;
55316;SDS011;41178;48.956;8.130;2023-04-16T22:02:49;20.07;;;14.90;;
55316;SDS011;41178;48.956;8.130;2023-04-16T22:07:52;19.53;;;15.87;;
55316;SDS011;41178;48.956;8.130;2023-04-16T22:12:53;20.37;;;15.47;;
55316;SDS011;41178;48.956;8.130;2023-04-16T22:17:55;21.90;;;16.97;;
55316;SDS011;41178;48.956;8.130;2023-04-16T22:22:57;22.23;;;17.27;;
55316;SDS011;41178;48.956;8.130;2023-04-16T22:27:59;23.17;;;17.83;;
55316;SDS011;41178;48.956;8.130;2023-04-16T22:33:01;20.07;;;16.33;;
55316;SDS011;41178;48.956;8.130;2023-04-16T22:38:04;21.63;;;16.73;;
55316;SDS011;41178;48.956;8.130;2023-04-16T22:43:05;23.73;;;16.90;;
55316;SDS011;41178;48.956;8.130;2023-04-16T22:48:07;23.53;;;17.20;;
55316;SDS011;41178;48.956;8.130;2023-04-16T22:53:09;22.97;;;18.43;;
55316;SDS011;41178;48.956;8.130;2023-04-16T22:58:11;23.97;;;18.23;;
55316;SDS011;41178;48.956;8.130;2023-04-16T23:03:13;22.30;;;17.20;;
55316;SDS011;41178;48.956;8.130;2023-04-16T23:08:15;22.53;;;17.97;;
55316;SDS011;41178;48.956;8.130;2023-04-16T23:13:16;26.70;;;20.10;;
55316;SDS011;41178;48.956;8.130;2023-04-16T23:18:18;26.37;;;19.70;;
55316;SDS011;41178;48.956;8.130;2023-04-16T23:23:20;25.67;;;20.90;;
55316;SDS011;41178;48.956;8.130;2023-04-16T23:28:22;24.90;;;19.33;;
55316;SDS011;41178;48.956;8.130;2023-04-16T23:33:23;25.67;;;20.20;;
55316;SDS011;41178;48.956;8.130;2023-04-16T23:38:25;29.73;;;21.97;;
55316;SDS011;41178;48.956;8.130;2023-04-16T23:43:27;25.77;;;20.53;;
55316;SDS011;41178;48.956;8.130;2023-04-16T23:48:28;28.80;;;20.67;;
55316;SDS011;41178;48.956;8.130;2023-04-16T23:53:30;29.40;;;21.90;;
55316;SDS011;41178;48.956;8.130;2023-04-16T23:58:32;23.43;;;18.73;;
